Date,TemperatureHighF,TemperatureAvgF,TemperatureLowF,DewpointHighF,DewpointAvgF,DewpointLowF,HumidityHigh,HumidityAvg,HumidityLow,PressureMaxIn,PressureMinIn,WindSpeedMaxMPH,WindSpeedAvgMPH,GustSpeedMaxMPH,PrecipitationSumIn
2013-9-1,71.0,62.8,55.0,59.0,55.9,52.0,97,79,60,30.09,29.96,8,3,14,0.00
2013-9-2,83.0,64.6,49.0,60.0,53.9,47.0,97,72,43,30.09,29.94,8,2,13,0.00
2013-9-3,91.0,72.2,59.0,68.0,60.1,55.0,89,68,38,30.01,29.95,4,1,9,0.00
2013-9-4,84.0,69.5,57.0,62.0,56.9,50.0,91,67,43,30.16,30.01,5,2,13,0.00
2013-9-5,91.0,73.9,60.0,68.0,59.2,50.0,76,61,44,30.14,29.94,7,2,14,0.00
2013-9-6,95.0,77.8,64.0,72.0,67.0,62.0,97,72,43,29.97,29.88,6,1,12,0.00
2013-9-7,77.0,69.8,64.0,68.0,62.2,-99.9,92,79,64,30.09,29.92,6,3,19,0.09
2013-9-8,78.0,68.7,62.0,69.0,64.8,61.0,98,88,72,30.04,29.77,7,1,19,0.26
2013-9-9,77.0,69.1,62.0,67.0,64.2,58.0,98,86,60,29.83,29.65,9,3,19,1.00
2013-9-10,81.0,67.5,57.0,62.0,57.5,54.0,95,73,40,30.02,29.83,7,2,16,0.01
2013-9-11,78.0,65.9,54.0,59.0,52.1,46.0,90,65,32,30.22,30.02,8,2,14,0.00
2013-9-12,76.0,60.9,48.0,53.0,48.9,45.0,92,68,38,30.34,30.21,7,2,11,0.00
2013-9-13,81.0,63.3,49.0,56.0,51.2,47.0,95,69,39,30.21,29.87,14,4,23,0.00
2013-9-14,65.0,60.3,59.0,63.0,54.9,-99.9,97,85,61,30.03,29.78,8,2,15,0.90
2013-9-15,68.0,55.1,45.0,54.0,46.7,43.0,95,76,45,30.29,30.03,9,3,18,0.17
2013-9-16,70.0,56.7,44.0,57.0,50.2,42.0,97,80,55,30.27,29.94,15,6,25,0.01
2013-9-17,77.0,63.9,53.0,65.0,57.6,51.0,95,81,64,29.94,29.68,11,6,18,0.01
2013-9-18,66.0,61.8,61.0,63.0,60.0,58.0,98,94,89,29.72,29.56,7,2,14,0.07
2013-9-19,65.0,54.8,50.0,61.0,50.5,46.0,92,85,77,30.03,29.64,12,6,28,0.02
2013-9-20,64.0,51.5,39.0,47.0,42.3,37.0,96,74,41,30.04,29.95,11,4,21,0.02
2013-9-21,73.0,53.8,38.0,50.0,42.7,-99.9,97,72,40,29.97,29.71,9,3,16,0.01
2013-9-22,83.0,64.5,48.0,67.0,55.0,45.0,93,73,51,29.71,29.42,12,4,29,0.01
2013-9-23,73.0,63.2,54.0,62.0,57.1,53.0,97,81,61,29.83,29.44,10,3,22,0.25
2013-9-24,76.0,58.4,46.0,54.0,48.8,44.0,98,75,33,29.93,29.82,6,1,9,0.23
2013-9-25,77.0,65.1,52.0,58.0,53.2,46.0,83,67,44,29.82,29.55,16,6,29,0.01
2013-9-26,68.0,60.7,48.0,59.0,53.9,43.0,93,79,59,29.86,29.49,9,4,19,0.02
2013-9-27,55.0,49.9,43.0,49.0,45.8,40.0,96,86,75,29.88,29.78,12,4,17,0.22
2013-9-28,64.0,52.2,45.0,47.0,41.8,-99.9,96,73,43,29.82,29.73,9,2,20,0.23
2013-9-29,73.0,56.2,41.0,52.0,45.9,39.0,95,71,42,29.79,29.53,12,3,19,0.01
2013-9-30,75.0,60.0,45.0,52.0,47.6,41.0,88,66,41,29.62,29.45,17,4,36,0.05